sensor_id;sensor_type;location;lat;lon;timestamp;P1;durP1;ratioP1;P2;durP2;ratioP2
43996;SDS011;34318;45.818;15.964;2022-12-11T00:02:22;18.63;;;8.50;;
43996;SDS011;34318;45.818;15.964;2022-12-11T00:04:50;10.40;;;8.43;;
43996;SDS011;34318;45.818;15.964;2022-12-11T00:07:17;11.85;;;8.95;;
43996;SDS011;34318;45.818;15.964;2022-12-11T00:09:44;14.77;;;9.45;;
43996;SDS011;34318;45.818;15.964;2022-12-11T00:12:11;11.88;;;8.15;;
43996;SDS011;34318;45.818;15.964;2022-12-11T00:14:38;11.82;;;8.70;;
43996;SDS011;34318;45.818;15.964;2022-12-11T00:17:05;13.05;;;8.23;;
43996;SDS011;34318;45.818;15.964;2022-12-11T00:19:33;11.20;;;8.77;;
43996;SDS011;34318;45.818;15.964;2022-12-11T00:22:00;14.38;;;8.52;;
43996;SDS011;34318;45.818;15.964;2022-12-11T00:24:27;11.32;;;8.48;;
43996;SDS011;34318;45.818;15.964;2022-12-11T00:26:54;10.85;;;8.32;;
43996;SDS011;34318;45.818;15.964;2022-12-11T00:29:21;13.52;;;8.15;;
43996;SDS011;34318;45.818;15.964;2022-12-11T00:31:49;10.30;;;7.70;;
43996;SDS011;34318;45.818;15.964;2022-12-11T00:34:16;13.48;;;8.35;;
43996;SDS011;34318;45.818;15.964;2022-12-11T00:36:43;11.40;;;8.60;;
43996;SDS011;34318;45.818;15.964;2022-12-11T00:39:10;11.55;;;8.18;;
43996;SDS011;34318;45.818;15.964;2022-12-11T00:41:37;12.75;;;8.07;;
43996;SDS011;34318;45.818;15.964;2022-12-11T00:44:05;15.27;;;9.27;;
43996;SDS011;34318;45.818;15.964;2022-12-11T00:46:32;15.30;;;9.50;;
43996;SDS011;34318;45.818;15.964;2022-12-11T00:48:59;16.92;;;9.93;;
43996;SDS011;34318;45.818;15.964;2022-12-11T00:51:26;13.90;;;8.90;;
43996;SDS011;34318;45.818;15.964;2022-12-11T00:53:54;13.05;;;8.70;;
43996;SDS011;34318;45.818;15.964;2022-12-11T00:56:21;13.35;;;8.93;;
43996;SDS011;34318;45.818;15.964;2022-12-11T00:58:50;12.70;;;9.15;;
43996;SDS011;34318;45.818;15.964;2022-12-11T01:01:18;15.40;;;9.98;;
43996;SDS011;34318;45.818;15.964;2022-12-11T01:03:46;13.38;;;9.07;;
43996;SDS011;34318;45.818;15.964;2022-12-11T01:06:17;11.20;;;7.95;;
43996;SDS011;34318;45.818;15.964;2022-12-11T01:08:45;13.75;;;9.43;;
43996;SDS011;34318;45.818;15.964;2022-12-11T01:11:14;11.05;;;8.30;;
43996;SDS011;34318;45.818;15.964;2022-12-11T01:13:41;12.82;;;9.60;;
43996;SDS011;34318;45.818;15.964;2022-12-11T01:16:10;12.35;;;8.48;;
43996;SDS011;34318;45.818;15.964;2022-12-11T01:18:38;16.50;;;9.43;;
43996;SDS011;34318;45.818;15.964;2022-12-11T01:21:10;14.23;;;8.25;;
43996;SDS011;34318;45.818;15.964;2022-12-11T01:23:37;12.52;;;8.68;;
43996;SDS011;34318;45.818;15.964;2022-12-11T01:26:08;12.77;;;8.70;;
43996;SDS011;34318;45.818;15.964;2022-12-11T01:28:36;10.25;;;7.68;;
43996;SDS011;34318;45.818;15.964;2022-12-11T01:31:07;11.52;;;8.25;;
43996;SDS011;34318;45.818;15.964;2022-12-11T01:33:34;14.43;;;7.57;;
43996;SDS011;34318;45.818;15.964;2022-12-11T01:36:05;13.25;;;8.13;;
43996;SDS011;34318;45.818;15.964;2022-12-11T01:38:33;15.43;;;8.32;;
43996;SDS011;34318;45.818;15.964;2022-12-11T01:41:00;12.02;;;8.38;;
43996;SDS011;34318;45.818;15.964;2022-12-11T01:43:27;12.18;;;8.52;;
43996;SDS011;34318;45.818;15.964;2022-12-11T01:45:54;10.82;;;7.57;;
43996;SDS011;34318;45.818;15.964;2022-12-11T01:48:26;13.52;;;9.02;;
43996;SDS011;34318;45.818;15.964;2022-12-11T01:50:59;13.15;;;8.60;;
43996;SDS011;34318;45.818;15.964;2022-12-11T01:55:57;8.90;;;7.03;;
43996;SDS011;34318;45.818;15.964;2022-12-11T01:58:35;11.77;;;8.25;;
43996;SDS011;34318;45.818;15.964;2022-12-11T02:01:06;11.60;;;8.13;;
43996;SDS011;34318;45.818;15.964;2022-12-11T02:03:36;13.30;;;8.00;;
43996;SDS011;34318;45.818;15.964;2022-12-11T02:06:04;10.75;;;7.90;;
43996;SDS011;34318;45.818;15.964;2022-12-11T02:08:31;13.05;;;7.60;;
43996;SDS011;34318;45.818;15.964;2022-12-11T02:11:13;10.73;;;7.28;;
43996;SDS011;34318;45.818;15.964;2022-12-11T02:13:53;11.00;;;7.50;;
43996;SDS011;34318;45.818;15.964;2022-12-11T02:16:34;10.73;;;7.68;;
43996;SDS011;34318;45.818;15.964;2022-12-11T02:21:50;13.45;;;8.25;;
43996;SDS011;34318;45.818;15.964;2022-12-11T02:29:29;8.82;;;6.72;;
43996;SDS011;34318;45.818;15.964;2022-12-11T02:32:03;9.97;;;7.00;;
43996;SDS011;34318;45.818;15.964;2022-12-11T02:37:08;8.93;;;7.10;;
43996;SDS011;34318;45.818;15.964;2022-12-11T02:39:37;8.48;;;6.72;;
43996;SDS011;34318;45.818;15.964;2022-12-11T02:42:06;8.93;;;7.28;;
43996;SDS011;34318;45.818;15.964;2022-12-11T02:44:34;8.85;;;6.97;;
43996;SDS011;34318;45.818;15.964;2022-12-11T02:47:02;7.25;;;6.55;;
43996;SDS011;34318;45.818;15.964;2022-12-11T02:49:29;7.88;;;6.25;;
43996;SDS011;34318;45.818;15.964;2022-12-11T02:51:57;9.85;;;6.95;;
43996;SDS011;34318;45.818;15.964;2022-12-11T02:54:27;7.90;;;6.57;;
43996;SDS011;34318;45.818;15.964;2022-12-11T02:57:08;9.70;;;6.90;;
43996;SDS011;34318;45.818;15.964;2022-12-11T02:59:37;9.48;;;6.43;;
43996;SDS011;34318;45.818;15.964;2022-12-11T03:02:06;8.98;;;6.65;;
43996;SDS011;34318;45.818;15.964;2022-12-11T03:04:34;10.20;;;7.13;;
43996;SDS011;34318;45.818;15.964;2022-12-11T03:07:03;7.57;;;6.38;;
43996;SDS011;34318;45.818;15.964;2022-12-11T03:09:43;9.18;;;6.22;;
43996;SDS011;34318;45.818;15.964;2022-12-11T03:12:12;9.07;;;6.25;;
43996;SDS011;34318;45.818;15.964;2022-12-11T03:14:40;8.80;;;6.15;;
43996;SDS011;34318;45.818;15.964;2022-12-11T03:17:12;10.45;;;6.43;;
43996;SDS011;34318;45.818;15.964;2022-12-11T03:19:42;8.88;;;5.70;;
43996;SDS011;34318;45.818;15.964;2022-12-11T03:22:16;7.88;;;5.95;;
43996;SDS011;34318;45.818;15.964;2022-12-11T03:24:46;8.50;;;6.10;;
43996;SDS011;34318;45.818;15.964;2022-12-11T03:27:22;8.15;;;6.07;;
43996;SDS011;34318;45.818;15.964;2022-12-11T03:29:54;6.63;;;5.32;;
43996;SDS011;34318;45.818;15.964;2022-12-11T03:32:25;8.00;;;5.53;;
43996;SDS011;34318;45.818;15.964;2022-12-11T03:35:28;7.35;;;5.28;;
43996;SDS011;34318;45.818;15.964;2022-12-11T03:37:47;7.43;;;5.53;;
43996;SDS011;34318;45.818;15.964;2022-12-11T03:40:16;7.50;;;5.88;;
43996;SDS011;34318;45.818;15.964;2022-12-11T03:42:44;8.65;;;5.68;;
43996;SDS011;34318;45.818;15.964;2022-12-11T03:45:12;5.97;;;5.38;;
43996;SDS011;34318;45.818;15.964;2022-12-11T03:47:40;6.38;;;5.28;;
43996;SDS011;34318;45.818;15.964;2022-12-11T03:50:10;8.15;;;6.15;;
43996;SDS011;34318;45.818;15.964;2022-12-11T03:52:39;7.28;;;5.60;;
43996;SDS011;34318;45.818;15.964;2022-12-11T03:55:11;6.82;;;4.80;;
43996;SDS011;34318;45.818;15.964;2022-12-11T03:57:39;7.35;;;5.53;;
43996;SDS011;34318;45.818;15.964;2022-12-11T04:00:10;6.30;;;5.55;;
43996;SDS011;34318;45.818;15.964;2022-12-11T04:02:39;6.70;;;5.38;;
43996;SDS011;34318;45.818;15.964;2022-12-11T04:05:06;6.35;;;5.18;;
43996;SDS011;34318;45.818;15.964;2022-12-11T04:07:34;6.05;;;5.38;;
43996;SDS011;34318;45.818;15.964;2022-12-11T04:10:03;6.05;;;5.22;;
43996;SDS011;34318;45.818;15.964;2022-12-11T04:12:30;6.15;;;5.05;;
43996;SDS011;34318;45.818;15.964;2022-12-11T04:14:57;8.15;;;5.63;;
43996;SDS011;34318;45.818;15.964;2022-12-11T04:17:32;7.30;;;5.88;;
43996;SDS011;34318;45.818;15.964;2022-12-11T04:20:18;6.55;;;5.18;;
43996;SDS011;34318;45.818;15.964;2022-12-11T04:23:11;6.22;;;4.75;;
43996;SDS011;34318;45.818;15.964;2022-12-11T04:26:07;6.30;;;4.75;;
43996;SDS011;34318;45.818;15.964;2022-12-11T04:28:35;8.48;;;5.40;;
43996;SDS011;34318;45.818;15.964;2022-12-11T04:31:02;6.40;;;5.03;;
43996;SDS011;34318;45.818;15.964;2022-12-11T04:33:29;7.03;;;5.50;;
43996;SDS011;34318;45.818;15.964;2022-12-11T04:35:57;5.88;;;5.28;;
43996;SDS011;34318;45.818;15.964;2022-12-11T04:38:25;5.88;;;5.13;;
43996;SDS011;34318;45.818;15.964;2022-12-11T04:40:56;5.78;;;4.97;;
43996;SDS011;34318;45.818;15.964;2022-12-11T04:43:23;6.35;;;4.80;;
43996;SDS011;34318;45.818;15.964;2022-12-11T04:45:58;7.38;;;5.18;;
43996;SDS011;34318;45.818;15.964;2022-12-11T04:48:26;5.67;;;4.93;;
43996;SDS011;34318;45.818;15.964;2022-12-11T04:50:53;5.60;;;5.00;;
43996;SDS011;34318;45.818;15.964;2022-12-11T04:53:20;6.78;;;4.75;;
43996;SDS011;34318;45.818;15.964;2022-12-11T04:55:47;6.45;;;4.75;;
43996;SDS011;34318;45.818;15.964;2022-12-11T04:58:14;6.10;;;4.50;;
43996;SDS011;34318;45.818;15.964;2022-12-11T05:00:42;5.35;;;4.70;;
43996;SDS011;34318;45.818;15.964;2022-12-11T05:03:09;5.85;;;4.85;;
43996;SDS011;34318;45.818;15.964;2022-12-11T05:05:36;15.65;;;5.15;;
43996;SDS011;34318;45.818;15.964;2022-12-11T05:08:03;4.80;;;4.22;;
43996;SDS011;34318;45.818;15.964;2022-12-11T05:10:31;5.60;;;4.63;;
43996;SDS011;34318;45.818;15.964;2022-12-11T05:12:58;8.32;;;4.78;;
43996;SDS011;34318;45.818;15.964;2022-12-11T05:15:25;5.97;;;4.95;;
43996;SDS011;34318;45.818;15.964;2022-12-11T05:17:52;4.80;;;4.30;;
43996;SDS011;34318;45.818;15.964;2022-12-11T05:20:19;5.68;;;4.68;;
43996;SDS011;34318;45.818;15.964;2022-12-11T05:22:47;4.38;;;3.92;;
43996;SDS011;34318;45.818;15.964;2022-12-11T05:25:14;5.93;;;4.57;;
43996;SDS011;34318;45.818;15.964;2022-12-11T05:27:41;5.65;;;4.60;;
43996;SDS011;34318;45.818;15.964;2022-12-11T05:30:08;6.95;;;4.63;;
43996;SDS011;34318;45.818;15.964;2022-12-11T05:32:36;4.95;;;4.30;;
43996;SDS011;34318;45.818;15.964;2022-12-11T05:35:03;5.28;;;3.90;;
43996;SDS011;34318;45.818;15.964;2022-12-11T05:37:31;4.50;;;4.05;;
43996;SDS011;34318;45.818;15.964;2022-12-11T05:39:59;4.57;;;4.07;;
43996;SDS011;34318;45.818;15.964;2022-12-11T05:42:26;5.07;;;4.40;;
43996;SDS011;34318;45.818;15.964;2022-12-11T05:44:54;4.78;;;4.28;;
43996;SDS011;34318;45.818;15.964;2022-12-11T05:47:21;4.63;;;4.10;;
43996;SDS011;34318;45.818;15.964;2022-12-11T05:49:48;6.72;;;4.75;;
43996;SDS011;34318;45.818;15.964;2022-12-11T05:52:16;4.97;;;4.43;;
43996;SDS011;34318;45.818;15.964;2022-12-11T05:54:43;5.28;;;4.15;;
43996;SDS011;34318;45.818;15.964;2022-12-11T05:57:10;4.63;;;4.13;;
43996;SDS011;34318;45.818;15.964;2022-12-11T05:59:37;4.65;;;3.97;;
43996;SDS011;34318;45.818;15.964;2022-12-11T06:02:04;4.57;;;4.15;;
43996;SDS011;34318;45.818;15.964;2022-12-11T06:04:32;5.43;;;4.47;;
43996;SDS011;34318;45.818;15.964;2022-12-11T06:06:59;4.47;;;3.60;;
43996;SDS011;34318;45.818;15.964;2022-12-11T06:09:26;4.57;;;4.10;;
43996;SDS011;34318;45.818;15.964;2022-12-11T06:11:53;6.70;;;4.15;;
43996;SDS011;34318;45.818;15.964;2022-12-11T06:14:21;5.30;;;4.22;;
43996;SDS011;34318;45.818;15.964;2022-12-11T06:16:48;6.05;;;4.32;;
43996;SDS011;34318;45.818;15.964;2022-12-11T06:19:15;5.13;;;4.40;;
43996;SDS011;34318;45.818;15.964;2022-12-11T06:21:44;5.15;;;4.05;;
43996;SDS011;34318;45.818;15.964;2022-12-11T06:24:13;4.53;;;3.92;;
43996;SDS011;34318;45.818;15.964;2022-12-11T06:26:41;4.63;;;3.90;;
43996;SDS011;34318;45.818;15.964;2022-12-11T06:29:08;5.03;;;3.80;;
43996;SDS011;34318;45.818;15.964;2022-12-11T06:31:38;6.60;;;3.90;;
43996;SDS011;34318;45.818;15.964;2022-12-11T06:34:05;4.63;;;4.10;;
43996;SDS011;34318;45.818;15.964;2022-12-11T06:36:33;4.75;;;4.07;;
43996;SDS011;34318;45.818;15.964;2022-12-11T06:39:00;4.10;;;3.58;;
43996;SDS011;34318;45.818;15.964;2022-12-11T06:41:27;5.97;;;4.38;;
43996;SDS011;34318;45.818;15.964;2022-12-11T06:43:57;4.15;;;3.67;;
43996;SDS011;34318;45.818;15.964;2022-12-11T06:46:24;4.57;;;4.00;;
43996;SDS011;34318;45.818;15.964;2022-12-11T06:48:51;4.40;;;4.00;;
43996;SDS011;34318;45.818;15.964;2022-12-11T06:51:20;4.75;;;3.83;;
43996;SDS011;34318;45.818;15.964;2022-12-11T06:53:54;4.13;;;3.72;;
43996;SDS011;34318;45.818;15.964;2022-12-11T06:56:21;4.00;;;3.60;;
43996;SDS011;34318;45.818;15.964;2022-12-11T06:58:49;4.22;;;3.83;;
43996;SDS011;34318;45.818;15.964;2022-12-11T07:01:24;3.75;;;3.45;;
43996;SDS011;34318;45.818;15.964;2022-12-11T07:03:52;5.55;;;3.83;;
43996;SDS011;34318;45.818;15.964;2022-12-11T07:06:20;4.35;;;3.95;;
43996;SDS011;34318;45.818;15.964;2022-12-11T07:08:47;5.43;;;4.13;;
43996;SDS011;34318;45.818;15.964;2022-12-11T07:11:15;3.88;;;3.40;;
43996;SDS011;34318;45.818;15.964;2022-12-11T07:13:43;4.68;;;4.07;;
43996;SDS011;34318;45.818;15.964;2022-12-11T07:16:11;3.92;;;3.30;;
43996;SDS011;34318;45.818;15.964;2022-12-11T07:18:39;3.58;;;3.28;;
43996;SDS011;34318;45.818;15.964;2022-12-11T07:21:07;4.10;;;3.70;;
43996;SDS011;34318;45.818;15.964;2022-12-11T07:23:35;4.50;;;3.50;;
43996;SDS011;34318;45.818;15.964;2022-12-11T07:26:03;6.60;;;4.05;;
43996;SDS011;34318;45.818;15.964;2022-12-11T07:28:31;6.75;;;3.75;;
43996;SDS011;34318;45.818;15.964;2022-12-11T07:30:58;4.97;;;3.70;;
43996;SDS011;34318;45.818;15.964;2022-12-11T07:33:25;4.95;;;3.90;;
43996;SDS011;34318;45.818;15.964;2022-12-11T07:35:52;5.47;;;3.50;;
43996;SDS011;34318;45.818;15.964;2022-12-11T07:38:19;4.22;;;3.83;;
43996;SDS011;34318;45.818;15.964;2022-12-11T07:40:47;5.25;;;3.75;;
43996;SDS011;34318;45.818;15.964;2022-12-11T07:43:14;4.10;;;3.70;;
43996;SDS011;34318;45.818;15.964;2022-12-11T07:45:42;8.60;;;4.13;;
43996;SDS011;34318;45.818;15.964;2022-12-11T07:48:09;4.57;;;4.07;;
43996;SDS011;34318;45.818;15.964;2022-12-11T07:50:37;5.78;;;4.63;;
43996;SDS011;34318;45.818;15.964;2022-12-11T07:53:05;4.70;;;4.22;;
43996;SDS011;34318;45.818;15.964;2022-12-11T07:55:32;7.18;;;5.10;;
43996;SDS011;34318;45.818;15.964;2022-12-11T07:57:59;4.78;;;4.18;;
43996;SDS011;34318;45.818;15.964;2022-12-11T08:00:27;5.45;;;4.70;;
43996;SDS011;34318;45.818;15.964;2022-12-11T08:02:54;4.80;;;4.30;;
43996;SDS011;34318;45.818;15.964;2022-12-11T08:05:21;5.47;;;3.95;;
43996;SDS011;34318;45.818;15.964;2022-12-11T08:07:48;5.65;;;4.80;;
43996;SDS011;34318;45.818;15.964;2022-12-11T08:10:15;5.78;;;4.90;;
43996;SDS011;34318;45.818;15.964;2022-12-11T08:12:43;4.90;;;4.40;;
43996;SDS011;34318;45.818;15.964;2022-12-11T08:15:10;7.18;;;4.80;;
43996;SDS011;34318;45.818;15.964;2022-12-11T08:17:38;7.20;;;5.60;;
43996;SDS011;34318;45.818;15.964;2022-12-11T08:20:05;6.70;;;6.07;;
43996;SDS011;34318;45.818;15.964;2022-12-11T08:22:33;9.35;;;6.13;;
43996;SDS011;34318;45.818;15.964;2022-12-11T08:25:00;9.13;;;5.78;;
43996;SDS011;34318;45.818;15.964;2022-12-11T08:27:30;9.13;;;5.47;;
43996;SDS011;34318;45.818;15.964;2022-12-11T08:29:57;11.23;;;6.05;;
43996;SDS011;34318;45.818;15.964;2022-12-11T08:32:24;10.38;;;6.68;;
43996;SDS011;34318;45.818;15.964;2022-12-11T08:34:52;11.82;;;7.72;;
43996;SDS011;34318;45.818;15.964;2022-12-11T08:37:19;14.55;;;8.48;;
43996;SDS011;34318;45.818;15.964;2022-12-11T08:39:46;9.13;;;8.23;;
43996;SDS011;34318;45.818;15.964;2022-12-11T08:42:14;10.93;;;8.52;;
43996;SDS011;34318;45.818;15.964;2022-12-11T08:44:41;13.65;;;7.78;;
43996;SDS011;34318;45.818;15.964;2022-12-11T08:47:09;13.80;;;7.65;;
43996;SDS011;34318;45.818;15.964;2022-12-11T08:49:36;8.52;;;7.53;;
43996;SDS011;34318;45.818;15.964;2022-12-11T08:52:04;11.70;;;7.70;;
43996;SDS011;34318;45.818;15.964;2022-12-11T08:54:31;8.43;;;7.30;;
43996;SDS011;34318;45.818;15.964;2022-12-11T08:56:59;13.25;;;7.95;;
43996;SDS011;34318;45.818;15.964;2022-12-11T08:59:26;20.15;;;7.65;;
43996;SDS011;34318;45.818;15.964;2022-12-11T09:01:53;11.00;;;7.10;;
43996;SDS011;34318;45.818;15.964;2022-12-11T09:04:21;7.82;;;7.03;;
43996;SDS011;34318;45.818;15.964;2022-12-11T09:06:48;9.70;;;6.93;;
43996;SDS011;34318;45.818;15.964;2022-12-11T09:09:16;10.00;;;7.13;;
43996;SDS011;34318;45.818;15.964;2022-12-11T09:11:44;10.15;;;7.43;;
43996;SDS011;34318;45.818;15.964;2022-12-11T09:14:12;9.68;;;7.05;;
43996;SDS011;34318;45.818;15.964;2022-12-11T09:16:41;7.20;;;6.50;;
43996;SDS011;34318;45.818;15.964;2022-12-11T09:19:10;9.07;;;6.63;;
43996;SDS011;34318;45.818;15.964;2022-12-11T09:21:39;9.85;;;6.53;;
43996;SDS011;34318;45.818;15.964;2022-12-11T09:24:07;8.05;;;6.30;;
43996;SDS011;34318;45.818;15.964;2022-12-11T09:26:35;9.02;;;6.90;;
43996;SDS011;34318;45.818;15.964;2022-12-11T09:29:03;9.07;;;6.47;;
43996;SDS011;34318;45.818;15.964;2022-12-11T09:31:31;8.60;;;6.15;;
43996;SDS011;34318;45.818;15.964;2022-12-11T09:34:00;9.45;;;6.22;;
43996;SDS011;34318;45.818;15.964;2022-12-11T09:36:27;7.40;;;6.10;;
43996;SDS011;34318;45.818;15.964;2022-12-11T09:38:54;8.38;;;6.40;;
43996;SDS011;34318;45.818;15.964;2022-12-11T09:46:19;7.28;;;6.25;;
43996;SDS011;34318;45.818;15.964;2022-12-11T09:48:50;7.75;;;5.63;;
43996;SDS011;34318;45.818;15.964;2022-12-11T09:51:28;9.13;;;5.50;;
43996;SDS011;34318;45.818;15.964;2022-12-11T09:53:59;8.95;;;5.63;;
43996;SDS011;34318;45.818;15.964;2022-12-11T09:56:38;6.68;;;5.97;;
43996;SDS011;34318;45.818;15.964;2022-12-11T10:12:33;7.63;;;5.82;;
43996;SDS011;34318;45.818;15.964;2022-12-11T10:17:43;5.70;;;5.10;;
43996;SDS011;34318;45.818;15.964;2022-12-11T10:20:22;7.60;;;4.90;;
43996;SDS011;34318;45.818;15.964;2022-12-11T10:22:50;6.47;;;5.53;;
43996;SDS011;34318;45.818;15.964;2022-12-11T10:25:25;7.43;;;5.55;;
43996;SDS011;34318;45.818;15.964;2022-12-11T10:27:54;5.68;;;5.18;;
43996;SDS011;34318;45.818;15.964;2022-12-11T10:30:24;5.50;;;5.00;;
43996;SDS011;34318;45.818;15.964;2022-12-11T10:33:21;6.47;;;4.88;;
43996;SDS011;34318;45.818;15.964;2022-12-11T10:35:52;5.20;;;4.28;;
43996;SDS011;34318;45.818;15.964;2022-12-11T10:38:30;6.93;;;5.13;;
43996;SDS011;34318;45.818;15.964;2022-12-11T10:41:02;5.38;;;4.88;;
43996;SDS011;34318;45.818;15.964;2022-12-11T10:43:40;5.45;;;4.80;;
43996;SDS011;34318;45.818;15.964;2022-12-11T10:46:21;7.53;;;4.90;;
43996;SDS011;34318;45.818;15.964;2022-12-11T10:48:57;5.70;;;5.00;;
43996;SDS011;34318;45.818;15.964;2022-12-11T10:51:25;17.13;;;5.45;;
43996;SDS011;34318;45.818;15.964;2022-12-11T10:56:32;7.63;;;5.30;;
43996;SDS011;34318;45.818;15.964;2022-12-11T10:59:01;9.18;;;4.65;;
43996;SDS011;34318;45.818;15.964;2022-12-11T11:01:28;5.82;;;5.20;;
43996;SDS011;34318;45.818;15.964;2022-12-11T11:03:57;8.00;;;7.18;;
43996;SDS011;34318;45.818;15.964;2022-12-11T11:06:26;13.68;;;12.38;;
43996;SDS011;34318;45.818;15.964;2022-12-11T11:08:55;14.70;;;13.38;;
43996;SDS011;34318;45.818;15.964;2022-12-11T11:13:50;17.45;;;15.95;;
43996;SDS011;34318;45.818;15.964;2022-12-11T11:16:19;17.65;;;15.95;;
43996;SDS011;34318;45.818;15.964;2022-12-11T11:18:50;18.05;;;16.42;;
43996;SDS011;34318;45.818;15.964;2022-12-11T11:21:20;18.20;;;16.48;;
43996;SDS011;34318;45.818;15.964;2022-12-11T11:23:48;17.67;;;15.80;;
43996;SDS011;34318;45.818;15.964;2022-12-11T11:26:19;17.60;;;14.98;;
43996;SDS011;34318;45.818;15.964;2022-12-11T11:28:49;15.57;;;14.07;;
43996;SDS011;34318;45.818;15.964;2022-12-11T11:31:18;14.95;;;12.70;;
43996;SDS011;34318;45.818;15.964;2022-12-11T11:36:18;12.65;;;10.13;;
43996;SDS011;34318;45.818;15.964;2022-12-11T11:41:18;9.82;;;8.93;;
43996;SDS011;34318;45.818;15.964;2022-12-11T11:43:47;10.45;;;9.45;;
43996;SDS011;34318;45.818;15.964;2022-12-11T11:46:20;8.93;;;8.02;;
43996;SDS011;34318;45.818;15.964;2022-12-11T11:48:49;9.07;;;8.23;;
43996;SDS011;34318;45.818;15.964;2022-12-11T11:51:40;10.65;;;8.48;;
43996;SDS011;34318;45.818;15.964;2022-12-11T11:54:19;8.88;;;7.30;;
43996;SDS011;34318;45.818;15.964;2022-12-11T11:56:48;8.70;;;7.38;;
43996;SDS011;34318;45.818;15.964;2022-12-11T12:01:51;8.57;;;7.38;;
43996;SDS011;34318;45.818;15.964;2022-12-11T12:04:20;8.25;;;7.45;;
43996;SDS011;34318;45.818;15.964;2022-12-11T12:06:56;9.23;;;7.90;;
43996;SDS011;34318;45.818;15.964;2022-12-11T12:09:32;7.82;;;7.05;;
43996;SDS011;34318;45.818;15.964;2022-12-11T12:15:05;9.75;;;6.97;;
43996;SDS011;34318;45.818;15.964;2022-12-11T12:17:44;9.48;;;7.30;;
43996;SDS011;34318;45.818;15.964;2022-12-11T12:20:31;15.75;;;9.68;;
43996;SDS011;34318;45.818;15.964;2022-12-11T12:25:41;19.50;;;17.65;;
43996;SDS011;34318;45.818;15.964;2022-12-11T12:30:42;25.30;;;22.77;;
43996;SDS011;34318;45.818;15.964;2022-12-11T12:35:49;28.65;;;25.60;;
43996;SDS011;34318;45.818;15.964;2022-12-11T12:43:46;33.67;;;28.75;;
43996;SDS011;34318;45.818;15.964;2022-12-11T12:48:44;48.72;;;36.38;;
43996;SDS011;34318;45.818;15.964;2022-12-11T12:51:14;52.53;;;35.40;;
43996;SDS011;34318;45.818;15.964;2022-12-11T12:53:52;53.10;;;39.17;;
43996;SDS011;34318;45.818;15.964;2022-12-11T12:56:20;57.72;;;37.08;;
43996;SDS011;34318;45.818;15.964;2022-12-11T12:58:48;57.55;;;36.78;;
43996;SDS011;34318;45.818;15.964;2022-12-11T13:03:56;50.08;;;38.63;;
43996;SDS011;34318;45.818;15.964;2022-12-11T13:08:54;48.05;;;37.88;;
43996;SDS011;34318;45.818;15.964;2022-12-11T13:11:29;52.13;;;37.10;;
43996;SDS011;34318;45.818;15.964;2022-12-11T13:14:04;48.67;;;37.42;;
43996;SDS011;34318;45.818;15.964;2022-12-11T13:16:34;47.50;;;36.55;;
43996;SDS011;34318;45.818;15.964;2022-12-11T13:19:02;55.13;;;36.97;;
43996;SDS011;34318;45.818;15.964;2022-12-11T13:21:33;48.30;;;35.13;;
43996;SDS011;34318;45.818;15.964;2022-12-11T13:27:07;40.83;;;32.75;;
43996;SDS011;34318;45.818;15.964;2022-12-11T13:32:04;47.00;;;33.95;;
43996;SDS011;34318;45.818;15.964;2022-12-11T13:34:55;44.60;;;32.28;;
43996;SDS011;34318;45.818;15.964;2022-12-11T13:37:27;41.58;;;30.88;;
43996;SDS011;34318;45.818;15.964;2022-12-11T13:39:55;75.82;;;52.33;;
43996;SDS011;34318;45.818;15.964;2022-12-11T13:42:30;61.75;;;42.13;;
43996;SDS011;34318;45.818;15.964;2022-12-11T13:44:58;58.53;;;41.33;;
43996;SDS011;34318;45.818;15.964;2022-12-11T13:47:26;57.90;;;41.58;;
43996;SDS011;34318;45.818;15.964;2022-12-11T13:49:55;51.15;;;38.22;;
43996;SDS011;34318;45.818;15.964;2022-12-11T13:52:26;54.97;;;37.38;;
43996;SDS011;34318;45.818;15.964;2022-12-11T13:54:54;53.45;;;38.17;;
43996;SDS011;34318;45.818;15.964;2022-12-11T13:57:25;50.20;;;37.70;;
43996;SDS011;34318;45.818;15.964;2022-12-11T13:59:54;50.55;;;35.47;;
43996;SDS011;34318;45.818;15.964;2022-12-11T14:02:32;49.13;;;36.53;;
43996;SDS011;34318;45.818;15.964;2022-12-11T14:05:09;44.47;;;33.50;;
43996;SDS011;34318;45.818;15.964;2022-12-11T14:07:41;47.88;;;34.80;;
43996;SDS011;34318;45.818;15.964;2022-12-11T14:10:14;46.95;;;33.83;;
43996;SDS011;34318;45.818;15.964;2022-12-11T14:12:48;40.90;;;32.85;;
43996;SDS011;34318;45.818;15.964;2022-12-11T14:15:17;55.83;;;33.73;;
43996;SDS011;34318;45.818;15.964;2022-12-11T14:17:45;43.05;;;32.45;;
43996;SDS011;34318;45.818;15.964;2022-12-11T14:20:18;43.88;;;32.22;;
43996;SDS011;34318;45.818;15.964;2022-12-11T14:22:46;39.95;;;30.15;;
43996;SDS011;34318;45.818;15.964;2022-12-11T14:25:24;46.97;;;32.00;;
43996;SDS011;34318;45.818;15.964;2022-12-11T14:27:52;38.65;;;30.60;;
43996;SDS011;34318;45.818;15.964;2022-12-11T14:30:20;39.42;;;30.63;;
43996;SDS011;34318;45.818;15.964;2022-12-11T14:32:48;44.88;;;30.67;;
43996;SDS011;34318;45.818;15.964;2022-12-11T14:35:26;38.63;;;30.38;;
43996;SDS011;34318;45.818;15.964;2022-12-11T14:38:00;39.30;;;28.58;;
43996;SDS011;34318;45.818;15.964;2022-12-11T14:40:32;36.60;;;27.38;;
43996;SDS011;34318;45.818;15.964;2022-12-11T14:43:02;33.17;;;24.75;;
43996;SDS011;34318;45.818;15.964;2022-12-11T14:45:34;33.88;;;25.38;;
43996;SDS011;34318;45.818;15.964;2022-12-11T14:48:03;46.35;;;28.98;;
43996;SDS011;34318;45.818;15.964;2022-12-11T14:50:47;34.65;;;25.95;;
43996;SDS011;34318;45.818;15.964;2022-12-11T14:53:20;31.23;;;25.10;;
43996;SDS011;34318;45.818;15.964;2022-12-11T14:55:48;34.75;;;26.00;;
43996;SDS011;34318;45.818;15.964;2022-12-11T14:58:17;36.90;;;26.70;;
43996;SDS011;34318;45.818;15.964;2022-12-11T15:00:55;33.40;;;24.60;;
43996;SDS011;34318;45.818;15.964;2022-12-11T15:03:23;32.75;;;24.30;;
43996;SDS011;34318;45.818;15.964;2022-12-11T15:05:54;37.80;;;26.48;;
43996;SDS011;34318;45.818;15.964;2022-12-11T15:11:06;36.88;;;25.33;;
43996;SDS011;34318;45.818;15.964;2022-12-11T15:13:35;38.65;;;23.98;;
43996;SDS011;34318;45.818;15.964;2022-12-11T15:16:03;33.22;;;25.52;;
43996;SDS011;34318;45.818;15.964;2022-12-11T15:18:33;30.83;;;24.33;;
43996;SDS011;34318;45.818;15.964;2022-12-11T15:21:04;31.63;;;24.67;;
43996;SDS011;34318;45.818;15.964;2022-12-11T15:24:17;39.47;;;26.30;;
43996;SDS011;34318;45.818;15.964;2022-12-11T15:26:33;27.52;;;21.50;;
43996;SDS011;34318;45.818;15.964;2022-12-11T15:29:03;23.15;;;17.88;;
43996;SDS011;34318;45.818;15.964;2022-12-11T15:31:31;22.98;;;16.60;;
43996;SDS011;34318;45.818;15.964;2022-12-11T15:34:00;22.42;;;15.98;;
43996;SDS011;34318;45.818;15.964;2022-12-11T15:36:31;21.88;;;16.42;;
43996;SDS011;34318;45.818;15.964;2022-12-11T15:39:00;23.20;;;18.55;;
43996;SDS011;34318;45.818;15.964;2022-12-11T15:41:27;23.80;;;20.30;;
43996;SDS011;34318;45.818;15.964;2022-12-11T15:43:59;22.42;;;20.02;;
43996;SDS011;34318;45.818;15.964;2022-12-11T15:46:26;21.42;;;17.95;;
43996;SDS011;34318;45.818;15.964;2022-12-11T15:48:54;25.30;;;19.27;;
43996;SDS011;34318;45.818;15.964;2022-12-11T15:51:21;25.88;;;21.50;;
43996;SDS011;34318;45.818;15.964;2022-12-11T15:53:50;27.75;;;23.73;;
43996;SDS011;34318;45.818;15.964;2022-12-11T15:56:17;29.30;;;26.33;;
43996;SDS011;34318;45.818;15.964;2022-12-11T15:58:44;28.15;;;25.30;;
43996;SDS011;34318;45.818;15.964;2022-12-11T16:01:13;28.27;;;25.35;;